Hovedside
METAR-TAF:

METAR-TAF

Lufthavner :

Ventspils, Latvia

breddegrad: 57-21-28N, lengdegrad: 021-32-39E, høyde over havet: 6 m

Gjeldene værobservasjon

Denne rapporten ble laget for 35 minutter siden, klokken 04:20 UTC
Vind 10 kt fra Sørvest
Temperatur 17°C
Luftfuktighet 88%
Trykk 1006 hPa
Sikt 10 km eller mer
Spredte skyer i en høyde av 1400 ft
Brutte skyer i en høyde av 3800 ft
Overskyet i en høyde av 4400 ft

METAR: EVVA 210420Z AUTO 22010KT 9999 SCT014 BKN038 OVC044 17/15 Q1006 RERA

Tid: 07:55 (04:55 UTC)


TAF: fraværende

Værobservasjoner og værvarsel for over 4000 flyplasser (METAR- og TAF-rapporter).

Tilgjengelige stasjoner er representert av de røde og gule prikkene på kartet.

Hold musepekeren over prikken for å se navnet på stasjonen.

Klikk så for å se værobservasjoner og -varsler.

For å forandre kartet kan du klikke på den grønne knappen med svart kryss for å zoome inn, på den grønne knappen med strek for å zoome ut, eller på de grønne pilene for å se tilstøtende kart.


METAR-TAF: